createdAt,value
2023-05-22T00:02:34.178Z,62.63
2023-05-22T00:07:27.580Z,62.81
2023-05-22T00:12:20.924Z,62.87
2023-05-22T00:17:15.330Z,63.03
2023-05-22T00:22:08.348Z,63.20
2023-05-22T00:27:01.162Z,63.32
2023-05-22T00:31:54.080Z,63.38
2023-05-22T00:36:47.286Z,63.53
2023-05-22T00:41:40.222Z,63.64
2023-05-22T00:46:34.477Z,63.63
2023-05-22T00:51:27.536Z,63.84
2023-05-22T00:56:21.973Z,64.02
2023-05-22T01:01:16.227Z,63.93
2023-05-22T01:06:10.059Z,64.15
2023-05-22T01:11:13.920Z,64.31
2023-05-22T01:16:15.956Z,64.47
2023-05-22T01:21:23.389Z,64.52
2023-05-22T01:26:35.092Z,64.45
2023-05-22T01:31:31.433Z,64.94
2023-05-22T01:36:28.727Z,64.73
2023-05-22T01:41:21.830Z,64.96
2023-05-22T01:46:15.136Z,65.00
2023-05-22T01:51:25.052Z,65.11
2023-05-22T01:56:31.052Z,65.20
2023-05-22T02:01:30.557Z,65.24
2023-05-22T02:06:24.406Z,65.28
2023-05-22T02:11:18.728Z,65.34
2023-05-22T02:16:12.845Z,65.59
2023-05-22T02:21:08.725Z,65.66
2023-05-22T02:26:04.812Z,65.54
2023-05-22T02:30:58.013Z,65.95
2023-05-22T02:35:50.913Z,65.96
2023-05-22T02:40:43.717Z,65.91
2023-05-22T02:45:36.553Z,66.04
2023-05-22T02:50:29.431Z,66.18
2023-05-22T02:55:22.898Z,66.18
2023-05-22T03:00:17.050Z,66.32
2023-05-22T03:05:10.932Z,66.36
2023-05-22T03:10:03.889Z,66.44
2023-05-22T03:14:56.728Z,66.45
2023-05-22T03:19:49.690Z,66.56
2023-05-22T03:24:42.731Z,66.42
2023-05-22T03:29:37.562Z,66.72
2023-05-22T03:34:32.463Z,66.88
2023-05-22T03:39:25.938Z,66.82
2023-05-22T03:44:28.142Z,66.78
2023-05-22T03:49:21.503Z,66.65
2023-05-22T03:54:14.458Z,66.69
2023-05-22T03:59:07.973Z,66.82
2023-05-22T04:04:01.055Z,67.09
2023-05-22T04:08:53.944Z,67.44
2023-05-22T04:13:46.859Z,67.37
2023-05-22T04:18:39.726Z,67.75
2023-05-22T04:23:33.024Z,67.91
2023-05-22T04:28:26.878Z,68.00
2023-05-22T04:33:19.769Z,68.20
2023-05-22T04:38:13.264Z,68.28
2023-05-22T04:43:06.294Z,68.24
2023-05-22T04:48:02.932Z,68.39
2023-05-22T04:53:04.553Z,68.28
2023-05-22T04:57:57.580Z,68.25
2023-05-22T05:02:51.028Z,68.40
2023-05-22T05:07:44.501Z,68.01
2023-05-22T05:12:37.871Z,67.58
2023-05-22T05:17:31.415Z,67.36
2023-05-22T05:22:24.464Z,67.18
2023-05-22T05:27:17.950Z,67.04
2023-05-22T05:32:12.733Z,66.56
2023-05-22T05:37:17.536Z,66.30
2023-05-22T05:42:11.385Z,65.23
2023-05-22T05:47:05.628Z,64.67
2023-05-22T05:51:58.797Z,64.02
2023-05-22T05:56:52.433Z,62.99
2023-05-22T06:01:47.303Z,62.10
2023-05-22T06:06:45.475Z,60.78
2023-05-22T06:11:41.475Z,59.21
2023-05-22T06:16:34.663Z,57.61
2023-05-22T06:21:28.039Z,56.54
2023-05-22T06:26:22.136Z,54.68
2023-05-22T06:31:15.900Z,52.78
2023-05-22T06:36:11.725Z,52.76
2023-05-22T06:41:05.637Z,52.53
2023-05-22T06:45:58.705Z,51.84
2023-05-22T06:51:01.747Z,51.26
2023-05-22T06:55:55.122Z,49.97
2023-05-22T07:00:59.166Z,48.09
2023-05-22T07:06:00.966Z,47.73
2023-05-22T07:10:54.090Z,47.15
2023-05-22T07:15:50.758Z,45.87
2023-05-22T07:20:44.478Z,44.28
2023-05-22T07:25:44.257Z,40.98
2023-05-22T07:30:39.661Z,40.94
2023-05-22T07:35:32.844Z,40.41
2023-05-22T07:40:26.514Z,39.93
2023-05-22T07:45:20.139Z,37.11
2023-05-22T07:50:13.538Z,36.50
2023-05-22T07:55:09.412Z,34.83
2023-05-22T08:00:19.090Z,33.26
2023-05-22T08:05:14.605Z,33.30
2023-05-22T08:10:27.947Z,33.29
2023-05-22T08:15:22.873Z,31.31
2023-05-22T08:20:15.810Z,29.99
2023-05-22T08:25:11.081Z,28.02
2023-05-22T08:30:05.325Z,28.66
2023-05-22T08:34:59.537Z,29.27
2023-05-22T08:39:52.521Z,29.57
2023-05-22T08:44:45.827Z,30.61
2023-05-22T08:49:40.845Z,31.88
2023-05-22T08:54:37.745Z,31.54
2023-05-22T08:59:31.759Z,31.74
2023-05-22T09:04:25.849Z,31.91
2023-05-22T09:09:18.800Z,32.07
2023-05-22T09:14:11.904Z,31.02
2023-05-22T09:19:06.550Z,30.28
2023-05-22T09:24:02.728Z,30.24
2023-05-22T09:28:57.319Z,30.45
2023-05-22T09:33:50.236Z,31.28
2023-05-22T09:38:43.125Z,31.76
2023-05-22T09:43:35.954Z,31.86
2023-05-22T09:48:28.884Z,30.42
2023-05-22T09:53:29.540Z,30.22
2023-05-22T09:58:27.196Z,30.00
2023-05-22T10:03:24.963Z,29.48
2023-05-22T10:08:29.754Z,29.30
2023-05-22T10:13:23.366Z,29.28
2023-05-22T10:18:20.061Z,29.36
2023-05-22T10:23:13.589Z,29.73
2023-05-22T10:28:08.273Z,29.77
2023-05-22T10:33:11.790Z,29.78
2023-05-22T10:38:27.004Z,30.51
2023-05-22T10:43:22.418Z,30.55
2023-05-22T10:48:16.198Z,30.74
2023-05-22T10:53:28.349Z,31.05
2023-05-22T10:58:28.912Z,31.68
2023-05-22T11:03:22.741Z,32.17
2023-05-22T11:08:27.898Z,32.48
2023-05-22T11:13:20.800Z,32.96
2023-05-22T11:18:14.776Z,32.67
2023-05-22T11:23:09.157Z,32.24
2023-05-22T11:28:05.636Z,32.61
2023-05-22T11:33:01.591Z,31.64
2023-05-22T11:37:55.851Z,30.39
2023-05-22T11:42:49.507Z,30.38
2023-05-22T11:47:42.830Z,30.14
2023-05-22T11:52:37.400Z,29.43
2023-05-22T11:57:31.588Z,29.87
2023-05-22T12:02:24.527Z,29.77
2023-05-22T12:07:17.523Z,29.34
2023-05-22T12:12:12.042Z,29.63
2023-05-22T12:17:06.502Z,29.49
2023-05-22T12:22:00.584Z,28.98
2023-05-22T12:26:54.564Z,29.73
2023-05-22T12:31:47.616Z,29.42
2023-05-22T12:36:42.568Z,29.70
2023-05-22T12:41:35.535Z,30.07
2023-05-22T12:46:28.752Z,29.87
2023-05-22T12:51:21.649Z,29.66
2023-05-22T12:56:14.484Z,29.45
2023-05-22T13:01:07.467Z,29.96
2023-05-22T13:06:00.369Z,29.50
2023-05-22T13:10:53.225Z,29.20
2023-05-22T13:15:47.219Z,29.00
2023-05-22T13:20:40.110Z,28.73
2023-05-22T13:25:32.937Z,28.44
2023-05-22T13:30:26.114Z,28.30
2023-05-22T13:35:19.479Z,28.51
2023-05-22T13:40:12.736Z,28.31
2023-05-22T13:45:06.836Z,28.59
2023-05-22T13:49:59.715Z,28.38
2023-05-22T13:54:52.671Z,28.88
2023-05-22T13:59:45.607Z,28.88
2023-05-22T14:04:38.968Z,28.26
2023-05-22T14:09:40.874Z,28.08
2023-05-22T14:14:36.869Z,28.83
2023-05-22T14:19:30.053Z,28.84
2023-05-22T14:24:23.262Z,28.16
2023-05-22T14:29:28.180Z,28.23
2023-05-22T14:34:23.735Z,28.77
2023-05-22T14:39:16.741Z,28.61
2023-05-22T14:44:10.592Z,28.42
2023-05-22T14:49:03.502Z,28.51
2023-05-22T14:53:56.676Z,28.98
2023-05-22T14:58:49.786Z,29.09
2023-05-22T15:03:43.514Z,29.05
2023-05-22T15:09:12.581Z,28.94
2023-05-22T15:14:13.391Z,28.68
2023-05-22T15:19:06.779Z,28.73
2023-05-22T15:24:02.739Z,28.53
2023-05-22T15:29:01.369Z,28.58
2023-05-22T15:34:55.362Z,28.70
2023-05-22T15:47:00.696Z,29.14
2023-05-22T15:52:37.280Z,29.32
2023-05-22T16:04:16.368Z,30.01
2023-05-22T16:10:07.722Z,30.14
2023-05-22T16:16:13.096Z,30.27
2023-05-22T16:27:23.774Z,30.58
2023-05-22T16:33:26.417Z,30.71
2023-05-22T16:39:00.380Z,31.14
2023-05-22T16:50:32.839Z,32.19
2023-05-22T16:56:12.652Z,32.28
2023-05-22T17:02:01.507Z,32.29
2023-05-22T17:07:58.350Z,32.68
2023-05-22T17:13:53.486Z,33.97
2023-05-22T17:19:03.671Z,34.12
2023-05-22T17:24:17.706Z,34.45
2023-05-22T17:30:30.468Z,36.01
2023-05-22T17:42:29.282Z,37.98
2023-05-22T17:47:32.948Z,38.44
2023-05-22T17:52:26.098Z,38.92
2023-05-22T17:57:19.139Z,39.65
2023-05-22T18:02:12.218Z,40.42
2023-05-22T18:07:05.169Z,41.09
2023-05-22T18:12:02.204Z,41.70
2023-05-22T18:16:55.135Z,42.36
2023-05-22T18:21:48.089Z,43.07
2023-05-22T18:26:41.131Z,43.40
2023-05-22T18:31:35.127Z,43.85
2023-05-22T18:36:28.045Z,44.61
2023-05-22T18:41:20.930Z,44.97
2023-05-22T18:46:13.813Z,45.56
2023-05-22T18:51:06.812Z,46.31
2023-05-22T18:55:59.728Z,46.77
2023-05-22T19:00:55.564Z,47.55
2023-05-22T19:05:49.242Z,48.22
2023-05-22T19:10:43.005Z,48.86
2023-05-22T19:15:37.848Z,49.35
2023-05-22T19:20:30.847Z,49.93
2023-05-22T19:25:23.826Z,50.17
2023-05-22T19:30:17.041Z,50.79
2023-05-22T19:35:11.083Z,51.01
2023-05-22T19:40:04.444Z,51.42
2023-05-22T19:44:57.420Z,51.79
2023-05-22T19:49:50.471Z,51.99
2023-05-22T19:54:49.885Z,52.15
2023-05-22T19:59:43.157Z,52.76
2023-05-22T20:04:36.044Z,53.13
2023-05-22T20:09:28.985Z,53.52
2023-05-22T20:14:22.057Z,53.92
2023-05-22T20:19:15.524Z,54.16
2023-05-22T20:24:12.618Z,54.34
2023-05-22T20:29:05.527Z,54.71
2023-05-22T20:33:59.326Z,55.23
2023-05-22T20:38:52.201Z,55.69
2023-05-22T20:43:46.510Z,56.27
2023-05-22T20:48:40.660Z,56.40
2023-05-22T20:53:33.560Z,56.43
2023-05-22T20:58:27.507Z,56.82
2023-05-22T21:03:20.514Z,57.10
2023-05-22T21:08:13.414Z,57.87
2023-05-22T21:13:06.719Z,58.13
2023-05-22T21:17:59.769Z,58.36
2023-05-22T21:22:52.698Z,58.61
2023-05-22T21:27:47.457Z,58.94
2023-05-22T21:32:41.243Z,59.07
2023-05-22T21:37:34.170Z,59.43
2023-05-22T21:42:34.782Z,59.59
2023-05-22T21:47:37.815Z,59.63
2023-05-22T21:52:30.662Z,59.64
2023-05-22T21:57:26.394Z,59.86
2023-05-22T22:02:19.574Z,59.84
2023-05-22T22:07:13.144Z,60.11
2023-05-22T22:12:06.276Z,60.34
2023-05-22T22:17:00.910Z,60.36
2023-05-22T22:21:53.936Z,60.65
2023-05-22T22:26:48.049Z,60.83
2023-05-22T22:31:41.135Z,60.79
2023-05-22T22:36:35.692Z,61.15
2023-05-22T22:41:29.248Z,61.49
2023-05-22T22:46:22.191Z,61.53
2023-05-22T22:51:17.126Z,61.56
2023-05-22T22:56:09.992Z,61.61
2023-05-22T23:01:02.930Z,62.03
2023-05-22T23:05:55.796Z,62.10
2023-05-22T23:10:48.676Z,62.15
2023-05-22T23:15:41.926Z,62.50
2023-05-22T23:20:35.152Z,62.82
2023-05-22T23:25:27.992Z,63.01
2023-05-22T23:30:21.538Z,63.03
2023-05-22T23:35:14.387Z,63.17
2023-05-22T23:40:08.913Z,63.39
2023-05-22T23:45:01.800Z,63.67
2023-05-22T23:49:56.722Z,63.99
2023-05-22T23:54:49.625Z,64.03
2023-05-22T23:59:43.797Z,64.09
